createdAt,value
2022-10-10T00:02:48.409Z,72.70
2022-10-10T00:05:30.984Z,72.60
2022-10-10T00:08:19.787Z,72.61
2022-10-10T00:11:02.047Z,73.02
2022-10-10T00:13:50.766Z,72.27
2022-10-10T00:16:33.019Z,73.10
2022-10-10T00:19:21.717Z,72.02
2022-10-10T00:22:04.039Z,72.33
2022-10-10T00:24:52.712Z,72.43
2022-10-10T00:27:35.013Z,71.64
2022-10-10T00:30:23.786Z,72.44
2022-10-10T00:33:12.012Z,72.56
2022-10-10T00:35:53.722Z,72.05
2022-10-10T00:38:42.733Z,71.51
2022-10-10T00:41:27.906Z,71.12
2022-10-10T00:44:21.731Z,71.44
2022-10-10T00:47:10.651Z,72.56
2022-10-10T00:50:00.772Z,71.79
2022-10-10T00:52:42.973Z,72.76
2022-10-10T00:55:31.726Z,72.68
2022-10-10T00:58:22.773Z,72.15
2022-10-10T01:01:11.041Z,70.99
2022-10-10T01:03:53.705Z,70.57
2022-10-10T01:06:42.631Z,71.38
2022-10-10T01:09:31.703Z,71.64
2022-10-10T01:12:38.763Z,72.46
2022-10-10T01:16:17.011Z,72.16
2022-10-10T01:19:20.702Z,72.68
2022-10-10T01:22:09.637Z,72.14
2022-10-10T01:25:23.696Z,72.82
2022-10-10T01:28:40.548Z,71.52
2022-10-10T01:31:32.696Z,72.29
2022-10-10T01:35:02.990Z,72.28
2022-10-10T01:37:57.709Z,72.12
2022-10-10T01:41:16.761Z,72.25
2022-10-10T01:44:07.761Z,72.19
2022-10-10T01:46:50.096Z,72.04
2022-10-10T01:49:41.717Z,72.91
2022-10-10T01:52:44.992Z,72.67
2022-10-10T01:55:57.712Z,72.28
2022-10-10T01:58:52.685Z,73.03
2022-10-10T02:02:19.763Z,71.44
2022-10-10T02:05:19.012Z,72.31
2022-10-10T02:08:30.028Z,73.17
2022-10-10T02:11:17.988Z,71.83
2022-10-10T02:14:23.709Z,71.59
2022-10-10T02:17:16.610Z,71.62
2022-10-10T02:20:08.787Z,72.69
2022-10-10T02:22:53.281Z,71.72
2022-10-10T02:25:49.717Z,71.61
2022-10-10T02:28:47.017Z,71.83
2022-10-10T02:31:55.746Z,71.46
2022-10-10T02:34:44.024Z,71.56
2022-10-10T02:37:33.726Z,70.77
2022-10-10T02:40:28.710Z,71.05
2022-10-10T02:43:21.614Z,70.55
2022-10-10T02:46:14.786Z,71.24
2022-10-10T02:48:56.985Z,70.70
2022-10-10T02:51:46.773Z,69.85
2022-10-10T02:58:16.714Z,71.02
2022-10-10T03:01:05.776Z,70.68
2022-10-10T03:03:48.018Z,71.35
2022-10-10T03:06:36.761Z,69.88
2022-10-10T03:09:19.069Z,68.86
2022-10-10T03:12:07.718Z,69.39
2022-10-10T03:14:56.715Z,68.59
2022-10-10T03:17:45.743Z,68.44
2022-10-10T03:20:28.008Z,68.74
2022-10-10T03:23:17.718Z,68.66
2022-10-10T03:26:01.147Z,68.71
2022-10-10T03:28:49.756Z,69.54
2022-10-10T03:31:31.993Z,69.04
2022-10-10T03:34:20.713Z,69.15
2022-10-10T03:37:09.718Z,68.63
2022-10-10T03:39:51.923Z,67.52
2022-10-10T03:42:40.730Z,68.39
2022-10-10T03:45:23.191Z,67.79
2022-10-10T03:48:11.801Z,67.26
2022-10-10T03:51:00.986Z,67.35
2022-10-10T03:53:43.700Z,67.89
2022-10-10T03:56:32.633Z,67.50
2022-10-10T03:59:21.765Z,67.19
2022-10-10T04:02:10.032Z,67.03
2022-10-10T04:04:52.706Z,67.32
2022-10-10T04:07:42.625Z,67.40
2022-10-10T04:10:25.714Z,67.57
2022-10-10T04:13:14.021Z,66.49
2022-10-10T04:16:00.705Z,66.85
2022-10-10T04:18:49.734Z,66.60
2022-10-10T04:21:31.989Z,65.75
2022-10-10T04:24:20.706Z,65.12
2022-10-10T04:27:02.976Z,63.60
2022-10-10T04:29:51.723Z,62.72
2022-10-10T04:32:34.174Z,62.45
2022-10-10T04:35:22.726Z,63.86
2022-10-10T04:38:05.654Z,65.22
2022-10-10T04:40:57.730Z,63.25
2022-10-10T04:43:39.980Z,63.30
2022-10-10T04:46:28.698Z,63.10
2022-10-10T04:49:11.167Z,63.56
2022-10-10T04:51:59.700Z,62.52
2022-10-10T04:54:42.000Z,63.58
2022-10-10T04:57:30.704Z,62.45
2022-10-10T05:00:26.708Z,60.61
2022-10-10T05:03:11.338Z,60.86
2022-10-10T05:05:59.751Z,61.09
2022-10-10T05:08:48.002Z,61.49
2022-10-10T05:11:29.715Z,62.47
2022-10-10T05:14:11.888Z,62.14
2022-10-10T05:17:00.690Z,59.60
2022-10-10T05:19:49.598Z,59.61
2022-10-10T05:22:38.710Z,60.62
2022-10-10T05:25:21.320Z,60.08
2022-10-10T05:28:09.741Z,61.19
2022-10-10T05:30:53.739Z,59.19
2022-10-10T05:33:42.766Z,58.86
2022-10-10T05:36:32.079Z,58.28
2022-10-10T05:39:14.772Z,59.47
2022-10-10T05:41:57.027Z,59.74
2022-10-10T05:44:46.684Z,58.79
2022-10-10T05:47:35.714Z,60.21
2022-10-10T05:50:43.080Z,60.27
2022-10-10T05:53:34.734Z,61.64
2022-10-10T05:56:18.209Z,61.98
2022-10-10T05:59:06.733Z,62.36
2022-10-10T06:01:49.125Z,64.58
2022-10-10T06:04:38.757Z,61.82
2022-10-10T06:07:21.050Z,62.62
2022-10-10T06:10:09.701Z,62.43
2022-10-10T06:12:58.688Z,61.57
2022-10-10T06:15:47.992Z,61.76
2022-10-10T06:18:30.744Z,60.65
2022-10-10T06:21:21.130Z,60.68
2022-10-10T06:24:04.137Z,61.47
2022-10-10T06:26:45.985Z,60.86
2022-10-10T06:29:34.753Z,60.14
2022-10-10T06:32:23.985Z,60.35
2022-10-10T06:35:05.761Z,60.90
2022-10-10T06:37:55.009Z,60.11
2022-10-10T06:40:36.778Z,60.99
2022-10-10T06:43:25.963Z,58.87
2022-10-10T06:46:08.715Z,57.46
2022-10-10T06:48:56.990Z,59.51
2022-10-10T06:51:39.779Z,59.27
2022-10-10T06:54:28.988Z,58.45
2022-10-10T06:57:11.753Z,59.49
2022-10-10T07:00:30.642Z,58.60
2022-10-10T07:03:20.740Z,58.99
2022-10-10T07:06:06.577Z,58.18
2022-10-10T07:08:55.692Z,60.28
2022-10-10T07:11:38.071Z,60.42
2022-10-10T07:14:26.745Z,59.88
2022-10-10T07:17:09.107Z,59.40
2022-10-10T07:19:57.695Z,60.02
2022-10-10T07:22:40.124Z,58.73
2022-10-10T07:25:28.690Z,57.87
2022-10-10T07:28:17.654Z,56.42
2022-10-10T07:31:11.750Z,57.58
2022-10-10T07:34:02.694Z,58.29
2022-10-10T07:36:47.862Z,58.41
2022-10-10T07:39:40.689Z,59.42
2022-10-10T07:42:29.950Z,58.50
2022-10-10T07:45:13.710Z,58.70
2022-10-10T07:48:01.982Z,59.02
2022-10-10T07:50:47.712Z,58.63
2022-10-10T07:53:35.974Z,57.81
2022-10-10T07:56:18.676Z,57.39
2022-10-10T07:59:13.745Z,57.74
2022-10-10T08:02:03.189Z,58.37
2022-10-10T08:04:45.764Z,59.51
2022-10-10T08:07:33.966Z,59.25
2022-10-10T08:10:17.761Z,60.40
2022-10-10T08:13:06.047Z,61.08
2022-10-10T08:15:48.662Z,60.18
2022-10-10T08:18:38.146Z,59.88
2022-10-10T08:21:21.683Z,60.95
2022-10-10T08:24:10.977Z,60.42
2022-10-10T08:26:53.686Z,61.16
2022-10-10T08:29:42.041Z,62.02
2022-10-10T08:32:24.370Z,63.99
2022-10-10T08:35:13.951Z,63.85
2022-10-10T08:37:55.700Z,63.03
2022-10-10T08:41:03.099Z,63.49
2022-10-10T08:43:58.706Z,62.80
2022-10-10T08:46:43.898Z,62.62
2022-10-10T08:49:53.716Z,61.98
2022-10-10T08:52:58.731Z,61.01
2022-10-10T08:55:46.188Z,60.22
2022-10-10T08:58:46.768Z,58.78
2022-10-10T09:02:18.779Z,58.75
2022-10-10T09:04:47.718Z,57.51
2022-10-10T09:07:45.803Z,57.48
2022-10-10T09:10:58.021Z,56.67
2022-10-10T09:13:49.968Z,57.34
2022-10-10T09:16:55.760Z,56.33
2022-10-10T09:19:57.960Z,57.30
2022-10-10T09:22:48.720Z,56.35
2022-10-10T09:25:47.002Z,56.99
2022-10-10T09:28:46.826Z,56.00
2022-10-10T09:31:41.412Z,55.37
2022-10-10T09:34:35.721Z,57.03
2022-10-10T09:37:48.394Z,57.32
2022-10-10T09:40:34.692Z,56.78
2022-10-10T09:43:28.033Z,55.53
2022-10-10T09:46:10.695Z,54.45
2022-10-10T09:49:00.994Z,54.74
2022-10-10T09:51:42.683Z,55.54
2022-10-10T09:54:31.964Z,54.84
2022-10-10T09:57:14.750Z,56.81
2022-10-10T10:00:10.568Z,54.46
2022-10-10T10:03:28.678Z,52.97
2022-10-10T10:06:10.963Z,54.59
2022-10-10T10:09:01.694Z,53.70
2022-10-10T10:11:47.000Z,54.31
2022-10-10T10:14:44.743Z,53.92
2022-10-10T10:17:32.013Z,54.31
2022-10-10T10:20:38.772Z,54.26
2022-10-10T10:24:19.117Z,54.40
2022-10-10T10:27:24.706Z,52.15
2022-10-10T10:30:06.953Z,53.19
2022-10-10T10:33:39.686Z,52.68
2022-10-10T10:36:57.674Z,53.49
2022-10-10T10:39:51.951Z,52.75
2022-10-10T10:42:49.006Z,52.09
2022-10-10T10:45:45.783Z,51.95
2022-10-10T10:48:54.699Z,51.89
2022-10-10T10:51:45.148Z,52.70
2022-10-10T10:54:59.762Z,51.64
2022-10-10T10:59:05.461Z,51.76
2022-10-10T11:02:06.218Z,50.57
2022-10-10T11:05:29.650Z,52.81
2022-10-10T11:08:50.680Z,51.99
2022-10-10T11:11:55.013Z,53.63
2022-10-10T11:14:55.761Z,54.20
2022-10-10T11:17:52.942Z,54.58
2022-10-10T11:20:46.734Z,53.44
2022-10-10T11:23:40.198Z,55.26
2022-10-10T11:26:45.674Z,56.70
2022-10-10T11:29:39.089Z,56.06
2022-10-10T11:32:36.732Z,55.44
2022-10-10T11:35:33.179Z,56.88
2022-10-10T11:38:25.705Z,55.30
2022-10-10T11:41:59.686Z,56.04
2022-10-10T11:44:47.943Z,56.19
2022-10-10T11:47:42.670Z,56.89
2022-10-10T11:50:30.367Z,57.65
2022-10-10T11:53:43.684Z,58.06
2022-10-10T11:56:41.263Z,59.81
2022-10-10T11:59:39.065Z,58.47
2022-10-10T12:02:29.979Z,59.42
2022-10-10T12:05:13.751Z,59.15
2022-10-10T12:08:08.033Z,60.58
2022-10-10T12:11:08.702Z,59.60
2022-10-10T12:14:01.943Z,61.34
2022-10-10T12:16:52.702Z,61.69
2022-10-10T12:19:41.964Z,62.19
2022-10-10T12:22:37.674Z,62.65
2022-10-10T12:25:33.949Z,62.33
2022-10-10T12:28:21.783Z,62.37
2022-10-10T12:31:13.035Z,62.12
2022-10-10T12:33:55.670Z,63.42
2022-10-10T12:37:07.616Z,62.42
2022-10-10T12:40:14.097Z,63.22
2022-10-10T12:43:03.739Z,62.73
2022-10-10T12:45:45.998Z,62.35
2022-10-10T12:48:34.707Z,62.48
2022-10-10T12:51:30.136Z,63.66
2022-10-10T12:54:49.665Z,63.22
2022-10-10T12:57:35.178Z,62.56
2022-10-10T13:00:32.059Z,62.57
2022-10-10T13:03:29.035Z,63.28
2022-10-10T13:06:32.671Z,62.95
2022-10-10T13:09:25.052Z,63.19
2022-10-10T13:12:15.673Z,63.34
2022-10-10T13:14:58.105Z,63.30
2022-10-10T13:17:49.685Z,64.04
2022-10-10T13:20:51.731Z,64.36
2022-10-10T13:23:41.942Z,63.78
2022-10-10T13:26:35.655Z,63.97
2022-10-10T13:29:44.679Z,64.08
2022-10-10T13:32:38.669Z,64.22
2022-10-10T13:35:34.674Z,64.41
2022-10-10T13:38:20.114Z,64.60
2022-10-10T13:41:11.651Z,63.98
2022-10-10T13:43:54.027Z,64.53
2022-10-10T13:46:43.834Z,64.83
2022-10-10T13:49:35.042Z,65.21
2022-10-10T13:52:31.752Z,64.97
2022-10-10T13:55:35.117Z,64.66
2022-10-10T13:58:24.688Z,64.78
2022-10-10T14:01:21.178Z,65.21
2022-10-10T14:04:17.992Z,65.41
2022-10-10T14:07:34.680Z,65.16
2022-10-10T14:10:22.676Z,66.23
2022-10-10T14:13:14.738Z,67.16
2022-10-10T14:16:28.964Z,66.67
2022-10-10T14:19:11.737Z,67.60
2022-10-10T14:21:59.998Z,67.50
2022-10-10T14:24:42.737Z,67.80
2022-10-10T14:27:36.937Z,68.06
2022-10-10T14:30:23.682Z,67.90
2022-10-10T14:33:20.982Z,67.75
2022-10-10T14:36:04.750Z,67.71
2022-10-10T14:38:52.931Z,68.32
2022-10-10T14:41:35.732Z,67.86
2022-10-10T14:44:23.973Z,67.56
2022-10-10T14:47:05.672Z,68.12
2022-10-10T14:49:57.648Z,67.16
2022-10-10T14:52:40.671Z,67.08
2022-10-10T14:55:29.472Z,66.67
2022-10-10T14:58:12.714Z,66.58
2022-10-10T15:01:03.298Z,65.50
2022-10-10T15:03:46.760Z,65.81
2022-10-10T15:06:49.963Z,66.22
2022-10-10T15:09:43.008Z,66.72
2022-10-10T15:12:35.987Z,66.10
2022-10-10T15:15:19.684Z,66.04
2022-10-10T15:18:26.655Z,66.31
2022-10-10T15:21:20.687Z,66.46
2022-10-10T15:24:02.948Z,65.78
2022-10-10T15:26:51.668Z,66.13
2022-10-10T15:29:40.071Z,66.19
2022-10-10T15:32:22.708Z,65.53
2022-10-10T15:35:11.767Z,66.58
2022-10-10T15:37:55.114Z,65.68
2022-10-10T15:40:43.710Z,66.45
2022-10-10T15:43:26.090Z,66.12
2022-10-10T15:46:16.700Z,65.28
2022-10-10T15:49:00.006Z,66.40
2022-10-10T15:51:53.686Z,66.90
2022-10-10T15:54:42.675Z,66.80
2022-10-10T15:57:24.981Z,67.54
2022-10-10T16:00:13.745Z,66.91
2022-10-10T16:02:56.020Z,66.23
2022-10-10T16:05:44.772Z,66.81
2022-10-10T16:08:33.968Z,66.59
2022-10-10T16:11:19.718Z,67.45
2022-10-10T16:14:08.613Z,67.35
2022-10-10T16:17:01.212Z,67.78
2022-10-10T16:19:49.979Z,67.94
2022-10-10T16:22:32.723Z,67.32
2022-10-10T16:25:23.176Z,67.34
2022-10-10T16:28:09.376Z,67.48
2022-10-10T16:31:02.046Z,67.50
2022-10-10T16:33:47.169Z,66.99
2022-10-10T16:36:38.692Z,67.34
2022-10-10T16:39:21.032Z,67.89
2022-10-10T16:42:09.709Z,67.90
2022-10-10T16:44:52.124Z,67.41
2022-10-10T16:47:41.793Z,67.77
2022-10-10T16:50:23.982Z,68.01
2022-10-10T16:53:12.682Z,68.67
2022-10-10T16:56:01.699Z,68.79
2022-10-10T16:58:44.243Z,68.79
2022-10-10T17:01:35.789Z,68.56
2022-10-10T17:04:18.117Z,69.86
2022-10-10T17:07:06.737Z,69.79
2022-10-10T17:09:56.127Z,69.69
2022-10-10T17:12:37.741Z,69.22
2022-10-10T17:15:26.970Z,69.36
2022-10-10T17:18:09.884Z,69.61
2022-10-10T17:20:59.111Z,70.34
2022-10-10T17:23:42.675Z,69.84
2022-10-10T17:26:33.767Z,70.01
2022-10-10T17:29:16.153Z,70.37
2022-10-10T17:32:06.783Z,69.88
2022-10-10T17:34:48.982Z,69.42
2022-10-10T17:37:37.722Z,69.73
2022-10-10T17:40:20.043Z,70.37
2022-10-10T17:43:11.597Z,70.08
2022-10-10T17:46:01.426Z,70.46
2022-10-10T17:48:58.703Z,70.11
2022-10-10T17:51:43.045Z,71.27
2022-10-10T17:54:31.704Z,70.48
2022-10-10T17:57:20.691Z,70.69
2022-10-10T18:00:16.846Z,71.09
2022-10-10T18:03:08.937Z,71.01
2022-10-10T18:05:50.665Z,70.68
2022-10-10T18:08:40.166Z,71.46
2022-10-10T18:11:27.725Z,71.49
2022-10-10T18:14:17.451Z,71.67
2022-10-10T18:17:00.731Z,71.58
2022-10-10T18:19:49.047Z,71.93
2022-10-10T18:22:31.689Z,71.93
2022-10-10T18:25:24.222Z,72.07
2022-10-10T18:28:07.882Z,72.33
2022-10-10T18:30:56.048Z,72.14
2022-10-10T18:33:38.741Z,71.81
2022-10-10T18:36:33.031Z,71.99
2022-10-10T18:39:19.689Z,71.51
2022-10-10T18:42:07.982Z,71.58
2022-10-10T18:44:50.707Z,71.06
2022-10-10T18:47:40.202Z,71.72
2022-10-10T18:50:22.727Z,71.62
2022-10-10T18:53:04.958Z,71.55
2022-10-10T18:55:53.713Z,71.27
2022-10-10T18:58:43.961Z,72.09
2022-10-10T19:01:43.756Z,71.77
2022-10-10T19:04:33.153Z,72.06
2022-10-10T19:07:15.675Z,72.30
2022-10-10T19:09:57.895Z,72.60
2022-10-10T19:12:47.662Z,72.07
2022-10-10T19:15:36.595Z,72.44
2022-10-10T19:18:19.717Z,72.94
2022-10-10T19:21:04.673Z,71.91
2022-10-10T19:23:53.670Z,71.82
2022-10-10T19:26:36.914Z,71.79
2022-10-10T19:29:26.746Z,72.28
2022-10-10T19:32:15.588Z,71.97
2022-10-10T19:34:58.680Z,72.49
2022-10-10T19:37:41.083Z,72.22
2022-10-10T19:40:29.974Z,72.69
2022-10-10T19:43:18.652Z,72.82
2022-10-10T19:46:01.357Z,72.85
2022-10-10T19:48:51.741Z,73.29
2022-10-10T19:51:35.939Z,73.25
2022-10-10T19:54:24.751Z,73.48
2022-10-10T19:57:07.131Z,73.81
2022-10-10T19:59:55.735Z,73.51
2022-10-10T20:02:52.935Z,74.10
2022-10-10T20:05:35.658Z,74.15
2022-10-10T20:08:24.673Z,74.11
2022-10-10T20:11:07.181Z,73.96
2022-10-10T20:13:59.670Z,73.69
2022-10-10T20:16:41.986Z,74.63
2022-10-10T20:19:30.654Z,74.64
2022-10-10T20:22:12.947Z,73.63
2022-10-10T20:25:01.649Z,74.39
2022-10-10T20:27:43.940Z,74.55
2022-10-10T20:30:32.988Z,73.97
2022-10-10T20:33:14.943Z,74.24
2022-10-10T20:36:03.891Z,73.63
2022-10-10T20:38:46.936Z,74.11
2022-10-10T20:41:38.686Z,74.07
2022-10-10T20:44:22.938Z,74.61
2022-10-10T20:47:11.667Z,74.10
2022-10-10T20:49:53.935Z,74.35
2022-10-10T20:52:42.680Z,74.66
2022-10-10T20:55:31.658Z,74.17
2022-10-10T20:58:13.842Z,74.54
2022-10-10T21:01:02.673Z,74.03
2022-10-10T21:03:46.365Z,73.21
2022-10-10T21:06:38.677Z,74.05
2022-10-10T21:09:20.916Z,74.33
2022-10-10T21:12:09.678Z,73.33
2022-10-10T21:14:58.568Z,74.01
2022-10-10T21:17:47.668Z,73.79
2022-10-10T21:20:36.580Z,74.46
2022-10-10T21:23:25.699Z,73.87
2022-10-10T21:26:28.972Z,74.46
2022-10-10T21:29:12.738Z,73.92
2022-10-10T21:31:54.844Z,74.15
2022-10-10T21:34:43.635Z,75.19
2022-10-10T21:37:28.205Z,75.39
2022-10-10T21:40:16.672Z,74.73
2022-10-10T21:43:05.025Z,75.47
2022-10-10T21:45:47.656Z,75.50
2022-10-10T21:48:29.833Z,75.68
2022-10-10T21:51:19.664Z,76.04
2022-10-10T21:54:08.733Z,75.66
2022-10-10T21:56:51.946Z,75.64
2022-10-10T21:59:40.678Z,76.04
2022-10-10T22:02:35.510Z,75.69
2022-10-10T22:05:39.649Z,75.17
2022-10-10T22:08:28.713Z,75.60
2022-10-10T22:11:12.922Z,75.61
2022-10-10T22:14:01.637Z,75.93
2022-10-10T22:16:50.659Z,76.27
2022-10-10T22:19:32.873Z,75.95
2022-10-10T22:22:21.726Z,76.49
2022-10-10T22:25:10.933Z,76.02
2022-10-10T22:27:57.113Z,76.26
2022-10-10T22:30:46.675Z,76.14
2022-10-10T22:33:28.921Z,75.97
2022-10-10T22:36:17.705Z,75.54
2022-10-10T22:38:59.945Z,74.81
2022-10-10T22:41:48.731Z,75.75
2022-10-10T22:44:30.914Z,75.59
2022-10-10T22:47:20.050Z,75.17
2022-10-10T22:50:01.958Z,75.60
2022-10-10T22:52:50.666Z,75.47
2022-10-10T22:55:32.970Z,75.42
2022-10-10T22:58:21.717Z,77.03
2022-10-10T23:01:14.006Z,76.69
2022-10-10T23:03:56.641Z,76.92
2022-10-10T23:06:46.007Z,77.31
2022-10-10T23:09:27.648Z,77.42
2022-10-10T23:12:16.935Z,77.12
2022-10-10T23:14:59.680Z,76.91
2022-10-10T23:17:47.914Z,78.08
2022-10-10T23:20:30.634Z,78.40
2022-10-10T23:23:18.936Z,77.78
2022-10-10T23:26:01.843Z,76.61
2022-10-10T23:28:46.710Z,76.47
2022-10-10T23:31:35.644Z,77.88
2022-10-10T23:34:24.649Z,76.55
2022-10-10T23:37:06.938Z,77.16
2022-10-10T23:39:55.641Z,76.13
2022-10-10T23:42:37.981Z,76.67
2022-10-10T23:45:26.634Z,75.61
2022-10-10T23:48:08.919Z,76.42
2022-10-10T23:50:58.037Z,75.97
2022-10-10T23:53:39.934Z,74.80
2022-10-10T23:56:28.651Z,75.40
2022-10-10T23:59:17.635Z,74.77
